Wesley A — WDE2433 — position and weather

sailwx.info

Track history (hours):
 
Tides and Currents Weather Stations Pressure Air Temp Water Temp Dewpoint Dewpoint Depression Visibility Wind Speed Wind Dir Waves Ship Positions

Wesley A

Owner: G & H Towing Company, Galveston, TX. More information available from US FCC via Universal Licensing System and Coast Guard Vessel Documentation Center.

Last reported at 2017-Nov-03 00:41 UTC. Time now 2017-Nov-18 14:30 UTC.
Position N 29°28' W 094°51'.
Warning: this ship's position is 15 days out of date.

Length 30 m; draft 6.4 m.

Type: Tug. MMSI: 367325130.

Date/timePositionNaut miles runAvg speedWind from/ knotsBaromVisibWave heightAir tempDewpointWater temp
2017-Nov-03 00:41N 29°28' W 094°51'210.9
2017-Nov-03 00:30N 29°30' W 094°52'611.0
2017-Nov-03 00:00N 29°35' W 094°56'4 7.2
2017-Nov-02 23:31N 29°37' W 094°59'1 1.5
2017-Nov-02 23:00N 29°37' W 095°00'0 0.3
2017-Nov-02 22:30N 29°37' W 095°00'1 1.5
2017-Nov-02 22:01N 29°37' W 095°01'2 4.4
2017-Nov-02 21:30N 29°37' W 094°59'4 7.0
2017-Nov-02 21:01N 29°35' W 094°56'0 0.4
2017-Nov-02 20:30N 29°34' W 094°56'1 1.2
2017-Nov-02 20:00N 29°34' W 094°55'7 0.2
2017-Oct-31 22:34N 29°28' W 094°51'111.4
2017-Oct-31 22:29N 29°29' W 094°52'511.2
2017-Oct-31 22:00N 29°33' W 094°55'5 9.3
2017-Oct-31 21:30N 29°37' W 094°58'1 1.3
2017-Oct-31 20:47N 29°37' W 094°60'2 6.7
2017-Oct-31 20:30N 29°37' W 094°57'  
2017-Oct-25 07:17N 29°30' W 094°52'310.3
2017-Oct-25 07:00N 29°32' W 094°54'510.3
2017-Oct-25 06:30N 29°36' W 094°57'2 4.8
2017-Oct-25 05:59N 29°37' W 095°00'0 0.5
2017-Oct-25 05:30N 29°37' W 095°00'0 0.0
2017-Oct-25 05:00N 29°37' W 095°00'0 0.0
2017-Oct-25 04:30N 29°37' W 095°00'0 0.6
2017-Oct-25 04:01N 29°37' W 094°60'3 6.8
2017-Oct-25 03:31N 29°40' W 094°59'1 2.5
2017-Oct-25 03:00N 29°41' W 094°60'0 0.2
2017-Oct-25 02:30N 29°41' W 094°59'4 8.7
2017-Oct-25 02:00N 29°37' W 094°58'2 3.1
2017-Oct-25 01:23N 29°37' W 095°00'0 0.0
2017-Oct-25 00:59N 29°37' W 095°00'0 0.0
2017-Oct-25 00:26N 29°37' W 095°00'0 0.0
2017-Oct-24 23:59N 29°37' W 095°00'0 0.0
2017-Oct-24 23:29N 29°37' W 095°00'0 0.0
2017-Oct-24 22:56N 29°37' W 095°00'0 0.0
2017-Oct-24 22:29N 29°37' W 095°00'0 0.0
2017-Oct-24 21:59N 29°37' W 095°00'0 0.0
2017-Oct-24 21:29N 29°37' W 095°00'0 0.0
2017-Oct-24 20:59N 29°37' W 095°00'0 0.0
2017-Oct-24 20:29N 29°37' W 095°00'3 5.5
2017-Oct-24 20:01N 29°37' W 094°57'3 5.1
2017-Oct-24 19:31N 29°37' W 095°00'0 0.4
2017-Oct-24 19:00N 29°37' W 095°00'1 1.1
2017-Oct-24 18:30N 29°37' W 095°01'0 0.2
2017-Oct-24 17:59N 29°37' W 095°01'0 0.0
2017-Oct-24 17:29N 29°37' W 095°01'0 0.0
2017-Oct-24 16:59N 29°37' W 095°01'0 0.0
2017-Oct-24 16:29N 29°37' W 095°01'0 0.0
2017-Oct-24 15:59N 29°37' W 095°01'0 0.0
2017-Oct-24 15:29N 29°37' W 095°01'0 0.0
2017-Oct-24 14:59N 29°37' W 095°01'0 0.0
2017-Oct-24 14:29N 29°37' W 095°01'0 0.0
2017-Oct-24 13:59N 29°37' W 095°01'0 0.0
2017-Oct-24 13:26N 29°37' W 095°01'0 0.0
2017-Oct-24 12:59N 29°37' W 095°01'0 0.0
2017-Oct-24 12:30N 29°37' W 095°01'0 0.9
2017-Oct-24 12:00N 29°37' W 095°02'1 2.2
2017-Oct-24 11:30N 29°37' W 095°00'0 0.3
2017-Oct-24 10:45N 29°37' W 095°01'1 1.6
2017-Oct-24 10:25N 29°37' W 095°00'0 0.3
2017-Oct-24 10:00N 29°37' W 095°00'1 1.8
2017-Oct-24 09:30N 29°37' W 095°01'1 1.7
2017-Oct-24 09:00N 29°37' W 095°00'0 0.0
2017-Oct-24 08:30N 29°37' W 095°00'0 0.0
2017-Oct-24 08:00N 29°37' W 095°00'0 0.7
2017-Oct-24 07:25N 29°37' W 095°01'0 0.0
2017-Oct-24 06:46N 29°37' W 095°01'0 0.0
2017-Oct-24 06:19N 29°37' W 095°01'0 0.0
2017-Oct-24 05:58N 29°37' W 095°01'0 0.0
2017-Oct-24 05:28N 29°37' W 095°01'0 0.0
2017-Oct-24 04:55N 29°37' W 095°01'0 0.0
2017-Oct-24 04:28N 29°37' W 095°01'0 0.0
2017-Oct-24 03:58N 29°37' W 095°01'0 0.0
2017-Oct-24 03:28N 29°37' W 095°01'0 0.0
2017-Oct-24 02:58N 29°37' W 095°01'1 1.6
2017-Oct-24 02:30N 29°37' W 095°01'0 0.8
2017-Oct-24 02:00N 29°37' W 095°01'0 0.8
2017-Oct-24 01:30N 29°37' W 095°01'0 0.0
2017-Oct-24 00:55N 29°37' W 095°01'  
Track history (hours):
 
Tides and Currents Weather Stations Pressure Air Temp Water Temp Dewpoint Dewpoint Depression Visibility Wind Speed Wind Dir Waves Ship Positions

Wesley A

Owner: G & H Towing Company, Galveston, TX. More information available from US FCC via Universal Licensing System and Coast Guard Vessel Documentation Center.

Last reported at 2017-Nov-03 00:41 UTC. Time now 2017-Nov-18 14:30 UTC.
Position N 29°28' W 094°51'.
Warning: this ship's position is 15 days out of date.

Length 30 m; draft 6.4 m.

Type: Tug. MMSI: 367325130.

Date/timePositionNaut miles runAvg speedWind from/ knotsBaromVisibWave heightAir tempDewpointWater temp
2017-Nov-03 00:41N 29°28' W 094°51'210.9
2017-Nov-03 00:30N 29°30' W 094°52'611.0
2017-Nov-03 00:00N 29°35' W 094°56'4 7.2
2017-Nov-02 23:31N 29°37' W 094°59'1 1.5
2017-Nov-02 23:00N 29°37' W 095°00'0 0.3
2017-Nov-02 22:30N 29°37' W 095°00'1 1.5
2017-Nov-02 22:01N 29°37' W 095°01'2 4.4
2017-Nov-02 21:30N 29°37' W 094°59'4 7.0
2017-Nov-02 21:01N 29°35' W 094°56'0 0.4
2017-Nov-02 20:30N 29°34' W 094°56'1 1.2
2017-Nov-02 20:00N 29°34' W 094°55'7 0.2
2017-Oct-31 22:34N 29°28' W 094°51'111.4
2017-Oct-31 22:29N 29°29' W 094°52'511.2
2017-Oct-31 22:00N 29°33' W 094°55'5 9.3
2017-Oct-31 21:30N 29°37' W 094°58'1 1.3
2017-Oct-31 20:47N 29°37' W 094°60'2 6.7
2017-Oct-31 20:30N 29°37' W 094°57'  
2017-Oct-25 07:17N 29°30' W 094°52'310.3
2017-Oct-25 07:00N 29°32' W 094°54'510.3
2017-Oct-25 06:30N 29°36' W 094°57'2 4.8
2017-Oct-25 05:59N 29°37' W 095°00'0 0.5
2017-Oct-25 05:30N 29°37' W 095°00'0 0.0
2017-Oct-25 05:00N 29°37' W 095°00'0 0.0
2017-Oct-25 04:30N 29°37' W 095°00'0 0.6
2017-Oct-25 04:01N 29°37' W 094°60'3 6.8
2017-Oct-25 03:31N 29°40' W 094°59'1 2.5
2017-Oct-25 03:00N 29°41' W 094°60'0 0.2
2017-Oct-25 02:30N 29°41' W 094°59'4 8.7
2017-Oct-25 02:00N 29°37' W 094°58'2 3.1
2017-Oct-25 01:23N 29°37' W 095°00'0 0.0
2017-Oct-25 00:59N 29°37' W 095°00'0 0.0
2017-Oct-25 00:26N 29°37' W 095°00'0 0.0
2017-Oct-24 23:59N 29°37' W 095°00'0 0.0
2017-Oct-24 23:29N 29°37' W 095°00'0 0.0
2017-Oct-24 22:56N 29°37' W 095°00'0 0.0
2017-Oct-24 22:29N 29°37' W 095°00'0 0.0
2017-Oct-24 21:59N 29°37' W 095°00'0 0.0
2017-Oct-24 21:29N 29°37' W 095°00'0 0.0
2017-Oct-24 20:59N 29°37' W 095°00'0 0.0
2017-Oct-24 20:29N 29°37' W 095°00'3 5.5
2017-Oct-24 20:01N 29°37' W 094°57'3 5.1
2017-Oct-24 19:31N 29°37' W 095°00'0 0.4
2017-Oct-24 19:00N 29°37' W 095°00'1 1.1
2017-Oct-24 18:30N 29°37' W 095°01'0 0.2
2017-Oct-24 17:59N 29°37' W 095°01'0 0.0
2017-Oct-24 17:29N 29°37' W 095°01'0 0.0
2017-Oct-24 16:59N 29°37' W 095°01'0 0.0
2017-Oct-24 16:29N 29°37' W 095°01'0 0.0
2017-Oct-24 15:59N 29°37' W 095°01'0 0.0
2017-Oct-24 15:29N 29°37' W 095°01'0 0.0
2017-Oct-24 14:59N 29°37' W 095°01'0 0.0
2017-Oct-24 14:29N 29°37' W 095°01'0 0.0
2017-Oct-24 13:59N 29°37' W 095°01'0 0.0
2017-Oct-24 13:26N 29°37' W 095°01'0 0.0
2017-Oct-24 12:59N 29°37' W 095°01'0 0.0
2017-Oct-24 12:30N 29°37' W 095°01'0 0.9
2017-Oct-24 12:00N 29°37' W 095°02'1 2.2
2017-Oct-24 11:30N 29°37' W 095°00'0 0.3
2017-Oct-24 10:45N 29°37' W 095°01'1 1.6
2017-Oct-24 10:25N 29°37' W 095°00'0 0.3
2017-Oct-24 10:00N 29°37' W 095°00'1 1.8
2017-Oct-24 09:30N 29°37' W 095°01'1 1.7
2017-Oct-24 09:00N 29°37' W 095°00'0 0.0
2017-Oct-24 08:30N 29°37' W 095°00'0 0.0
2017-Oct-24 08:00N 29°37' W 095°00'0 0.7
2017-Oct-24 07:25N 29°37' W 095°01'0 0.0
2017-Oct-24 06:46N 29°37' W 095°01'0 0.0
2017-Oct-24 06:19N 29°37' W 095°01'0 0.0
2017-Oct-24 05:58N 29°37' W 095°01'0 0.0
2017-Oct-24 05:28N 29°37' W 095°01'0 0.0
2017-Oct-24 04:55N 29°37' W 095°01'0 0.0
2017-Oct-24 04:28N 29°37' W 095°01'0 0.0
2017-Oct-24 03:58N 29°37' W 095°01'0 0.0
2017-Oct-24 03:28N 29°37' W 095°01'0 0.0
2017-Oct-24 02:58N 29°37' W 095°01'1 1.6
2017-Oct-24 02:30N 29°37' W 095°01'0 0.8
2017-Oct-24 02:00N 29°37' W 095°01'0 0.8
2017-Oct-24 01:30N 29°37' W 095°01'0 0.0
2017-Oct-24 00:55N 29°37' W 095°01'  

Dump ship's entire track history